Rudyard, MI (49780)

12:19 PM EDT on August 31, 2016 (GMT -0400)
MesoWest | | Change Station

Elev 668 ft 46.19 °N, 84.56 °W | Updated 39 minutes ago

Scattered Clouds
Scattered Clouds
76 °F
Feels Like 78 °F
N
13
Wind Variable Wind from NNW
Gusts 18.0 mph

Today
High -- | Low -- °F
--% Chance of Precip.
Yesterday
High -- | Low -- °F
Precip. -- in
Pressure 30.14 in
Visibility 10.0 miles
Clouds Few 3000 ft
Scattered Clouds 5000 ft
Heat Index 78 °F
Dew Point 65 °F
Humidity 70%
Rainfall in
Snow Depth Not available.
6:57 AM 8:17 PM
Waning Crescent, 1% visible
METAR KCIU 311556Z AUTO 34012KT 10SM FEW030 SCT050 21/14 A3007 RMK AO2 SLP204 T02060139
Pressure 30.14 in
Visibility 10.0 miles
Clouds Few 3000 ft
Scattered Clouds 5000 ft
Heat Index 78 °F
Dew Point 65 °F
Humidity 70%
Rainfall in
Snow Depth Not available.
6:57 AM 8:17 PM
Waning Crescent, 1% visible
METAR KCIU 311556Z AUTO 34012KT 10SM FEW030 SCT050 21/14 A3007 RMK AO2 SLP204 T02060139

10-Day Weather Forecast

Almanac

Astronomy

Aug. 31, 2016 Rise Set
Actual Time
Civil Twilight
Nautical Twilight
Astronomical Twilight
Moon
Length of Visible Light
Length of Day
Tomorrow will be .
, % of the Moon is Illuminated

Today's Extremes

State Highs State Lows

Community

WunderPhotos

Upload Photos

1,936,105 photos uploaded!

WunderBlog® & News

Nearby

Air Quality

  Air Quality AQ Index Pollutant
Not available.

Snow Depth

Station Depth Elevation

Earthquake Activity

City Distance Mag. Time & Date
Minimum magnitude displayed is 2.5.

Coastal Water Temperatures

Place Temperature

Stations

Nearby Weather Stations

Station Location Temp. Windchill Dew Point Humidity Wind Precip. Elev Updated Type
                   

Watches & Warnings

There are currently no watches in effect.